createdAt,value
2017-09-22T00:02:29.021Z,10.00
2017-09-22T00:04:58.129Z,9.80
2017-09-22T00:07:27.260Z,9.73
2017-09-22T00:09:56.409Z,9.43
2017-09-22T00:12:25.574Z,9.17
2017-09-22T00:14:54.699Z,10.00
2017-09-22T00:17:23.825Z,10.60
2017-09-22T00:19:52.948Z,10.87
2017-09-22T00:22:22.089Z,10.23
2017-09-22T00:24:51.209Z,10.67
2017-09-22T00:27:20.349Z,10.83
2017-09-22T00:29:49.452Z,10.27
2017-09-22T00:32:18.592Z,10.03
2017-09-22T00:34:47.725Z,9.80
2017-09-22T00:37:16.853Z,9.73
2017-09-22T00:39:45.983Z,10.97
2017-09-22T00:42:15.316Z,10.93
2017-09-22T00:44:44.429Z,11.10
2017-09-22T00:47:13.574Z,10.70
2017-09-22T00:49:42.692Z,10.30
2017-09-22T00:52:11.828Z,11.50
2017-09-22T00:54:40.980Z,9.60
2017-09-22T00:57:10.109Z,11.00
2017-09-22T00:59:39.229Z,10.20
2017-09-22T01:02:08.348Z,10.20
2017-09-22T01:04:37.537Z,10.93
2017-09-22T01:07:06.669Z,11.10
2017-09-22T01:09:35.788Z,10.60
2017-09-22T01:12:04.913Z,10.67
2017-09-22T01:14:34.052Z,11.50
2017-09-22T01:17:03.190Z,10.97
2017-09-22T01:19:32.317Z,11.83
2017-09-22T01:22:01.454Z,11.13
2017-09-22T01:24:30.649Z,11.77
2017-09-22T01:26:59.782Z,11.27
2017-09-22T01:29:28.902Z,11.20
2017-09-22T01:31:58.044Z,10.80
2017-09-22T01:34:27.161Z,11.20
2017-09-22T01:36:56.276Z,11.40
2017-09-22T01:39:25.421Z,11.20
2017-09-22T01:41:54.699Z,10.37
2017-09-22T01:44:23.829Z,11.60
2017-09-22T01:46:52.958Z,12.20
2017-09-22T01:49:22.083Z,11.80
2017-09-22T01:51:51.200Z,10.70
2017-09-22T01:54:20.321Z,11.50
2017-09-22T01:56:50.044Z,10.77
2017-09-22T01:59:19.169Z,10.50
2017-09-22T02:01:48.284Z,10.80
2017-09-22T02:04:17.412Z,10.47
2017-09-22T02:06:46.594Z,11.23
2017-09-22T02:09:15.736Z,10.47
2017-09-22T02:11:44.861Z,11.20
2017-09-22T02:14:13.993Z,11.00
2017-09-22T02:16:43.416Z,10.27
2017-09-22T02:19:12.528Z,10.77
2017-09-22T02:21:41.671Z,11.10
2017-09-22T02:24:10.808Z,11.93
2017-09-22T02:26:39.940Z,10.70
2017-09-22T02:29:09.057Z,11.13
2017-09-22T02:31:38.199Z,10.67
2017-09-22T02:34:07.309Z,11.63
2017-09-22T02:36:36.436Z,10.63
2017-09-22T02:39:05.583Z,11.00
2017-09-22T02:41:34.737Z,10.37
2017-09-22T02:44:03.865Z,11.37
2017-09-22T02:46:32.999Z,10.07
2017-09-22T02:49:02.143Z,11.93
2017-09-22T02:51:31.255Z,11.77
2017-09-22T02:54:00.381Z,11.63
2017-09-22T02:56:29.490Z,11.60
2017-09-22T02:58:58.727Z,10.53
2017-09-22T03:01:27.849Z,10.60
2017-09-22T03:03:56.982Z,12.40
2017-09-22T03:06:26.103Z,11.50
2017-09-22T03:08:55.245Z,10.53
2017-09-22T03:11:24.398Z,12.37
2017-09-22T03:13:53.604Z,11.07
2017-09-22T03:16:22.718Z,11.83
2017-09-22T03:18:51.833Z,13.00
2017-09-22T03:21:20.959Z,12.30
2017-09-22T03:23:50.092Z,13.17
2017-09-22T03:26:19.212Z,12.50
2017-09-22T03:28:48.357Z,11.80
2017-09-22T03:31:17.493Z,10.57
2017-09-22T03:33:46.621Z,11.20
2017-09-22T03:36:15.809Z,11.83
2017-09-22T03:38:44.927Z,11.27
2017-09-22T03:41:14.077Z,11.20
2017-09-22T03:43:43.190Z,11.53
2017-09-22T03:46:12.312Z,11.33
2017-09-22T03:48:41.441Z,11.00
2017-09-22T03:51:10.574Z,12.73
2017-09-22T03:53:39.701Z,12.27
2017-09-22T03:56:08.837Z,12.20
2017-09-22T03:58:38.013Z,11.50
2017-09-22T04:01:07.141Z,13.47
2017-09-22T04:03:36.260Z,12.17
2017-09-22T04:06:05.384Z,12.87
2017-09-22T04:08:34.528Z,12.83
2017-09-22T04:11:03.660Z,13.10
2017-09-22T04:13:32.790Z,12.43
2017-09-22T04:16:01.917Z,11.77
2017-09-22T04:18:31.036Z,12.77
2017-09-22T04:21:00.183Z,12.20
2017-09-22T04:23:29.409Z,12.80
2017-09-22T04:25:58.550Z,13.60
2017-09-22T04:28:27.670Z,13.00
2017-09-22T04:30:56.797Z,11.93
2017-09-22T04:33:25.911Z,13.40
2017-09-22T04:35:55.037Z,12.57
2017-09-22T04:38:24.144Z,13.83
2017-09-22T04:40:53.300Z,12.80
2017-09-22T04:43:22.429Z,13.33
2017-09-22T04:45:51.566Z,13.87
2017-09-22T04:48:20.828Z,13.43
2017-09-22T04:50:49.966Z,12.97
2017-09-22T04:53:19.084Z,13.47
2017-09-22T04:55:48.213Z,13.63
2017-09-22T04:58:17.505Z,14.00
2017-09-22T05:00:46.625Z,14.20
2017-09-22T05:03:15.763Z,13.53
2017-09-22T05:05:44.905Z,14.70
2017-09-22T05:08:14.040Z,16.67
2017-09-22T05:10:43.274Z,13.93
2017-09-22T05:13:12.400Z,14.20
2017-09-22T05:15:41.529Z,14.80
2017-09-22T05:18:10.654Z,13.90
2017-09-22T05:20:39.878Z,15.00
2017-09-22T05:23:08.991Z,16.27
2017-09-22T05:25:38.114Z,13.63
2017-09-22T05:28:07.223Z,14.83
2017-09-22T05:30:36.357Z,15.20
2017-09-22T05:33:05.476Z,14.87
2017-09-22T05:35:34.636Z,15.43
2017-09-22T05:38:03.762Z,13.90
2017-09-22T05:40:32.886Z,15.00
2017-09-22T05:43:02.032Z,16.33
2017-09-22T05:45:31.145Z,14.80
2017-09-22T05:48:00.281Z,15.33
2017-09-22T05:50:29.397Z,14.60
2017-09-22T05:52:58.552Z,14.93
2017-09-22T05:55:27.690Z,15.00
2017-09-22T05:57:56.798Z,16.30
2017-09-22T06:00:25.934Z,15.33
2017-09-22T06:02:55.058Z,15.20
2017-09-22T06:05:24.185Z,15.80
2017-09-22T06:07:53.305Z,14.70
2017-09-22T06:10:22.568Z,16.90
2017-09-22T06:12:51.703Z,14.73
2017-09-22T06:15:20.828Z,16.07
2017-09-22T06:17:49.977Z,14.63
2017-09-22T06:20:19.106Z,15.90
2017-09-22T06:22:48.222Z,15.80
2017-09-22T06:25:17.960Z,15.50
2017-09-22T06:27:47.101Z,16.57
2017-09-22T06:30:16.228Z,16.30
2017-09-22T06:32:45.370Z,16.67
2017-09-22T06:35:14.481Z,16.73
2017-09-22T06:37:43.616Z,16.37
2017-09-22T06:40:12.753Z,16.67
2017-09-22T06:42:41.868Z,15.77
2017-09-22T06:45:11.005Z,14.93
2017-09-22T06:47:40.147Z,14.80
2017-09-22T06:50:09.270Z,15.27
2017-09-22T06:52:38.545Z,15.57
2017-09-22T06:55:07.661Z,15.47
2017-09-22T06:57:36.815Z,15.90
2017-09-22T07:00:05.940Z,16.27
2017-09-22T07:02:35.590Z,15.30
2017-09-22T07:05:04.700Z,15.70
2017-09-22T07:07:33.855Z,16.23
2017-09-22T07:10:02.972Z,15.47
2017-09-22T07:12:32.116Z,17.40
2017-09-22T07:15:01.258Z,16.60
2017-09-22T07:17:30.366Z,16.50
2017-09-22T07:19:59.501Z,16.53
2017-09-22T07:22:28.624Z,16.30
2017-09-22T07:24:57.749Z,14.00
2017-09-22T07:27:26.870Z,15.50
2017-09-22T07:29:56.022Z,17.43
2017-09-22T07:32:25.136Z,15.00
2017-09-22T07:34:54.281Z,16.17
2017-09-22T07:37:23.479Z,15.20
2017-09-22T07:39:52.608Z,15.20
2017-09-22T07:42:21.826Z,17.20
2017-09-22T07:44:50.980Z,15.80
2017-09-22T07:47:20.184Z,18.00
2017-09-22T07:49:49.312Z,17.70
2017-09-22T07:52:19.098Z,16.57
2017-09-22T07:54:48.943Z,18.77
2017-09-22T07:57:18.129Z,16.10
2017-09-22T07:59:47.260Z,17.90
2017-09-22T08:02:16.377Z,17.90
2017-09-22T08:04:45.509Z,17.60
2017-09-22T08:07:14.633Z,17.93
2017-09-22T08:09:43.773Z,17.50
2017-09-22T08:12:12.907Z,16.83
2017-09-22T08:14:42.053Z,18.60
2017-09-22T08:17:11.869Z,15.60
2017-09-22T08:19:41.009Z,17.60
2017-09-22T08:22:10.128Z,17.00
2017-09-22T08:24:39.249Z,16.00
2017-09-22T08:27:08.380Z,18.13
2017-09-22T08:29:37.492Z,18.10
2017-09-22T08:32:06.624Z,18.30
2017-09-22T08:34:35.736Z,18.20
2017-09-22T08:37:04.866Z,17.97
2017-09-22T08:39:33.985Z,18.90
2017-09-22T08:42:03.112Z,17.73
2017-09-22T08:44:32.257Z,17.80
2017-09-22T08:47:01.373Z,17.00
2017-09-22T08:49:30.505Z,17.27
2017-09-22T08:51:59.628Z,17.07
2017-09-22T08:54:28.757Z,16.67
2017-09-22T08:56:57.882Z,17.20
2017-09-22T08:59:27.066Z,16.53
2017-09-22T09:01:56.192Z,18.00
2017-09-22T09:04:25.312Z,17.30
2017-09-22T09:06:54.435Z,18.27
2017-09-22T09:09:23.555Z,18.37
2017-09-22T09:11:52.708Z,16.93
2017-09-22T09:14:21.817Z,17.80
2017-09-22T09:16:50.977Z,17.60
2017-09-22T09:19:20.113Z,16.93
2017-09-22T09:21:49.236Z,17.53
2017-09-22T09:24:18.400Z,16.83
2017-09-22T09:26:47.532Z,18.93
2017-09-22T09:29:16.718Z,17.43
2017-09-22T09:31:46.604Z,19.47
2017-09-22T09:34:15.811Z,16.50
2017-09-22T09:36:44.945Z,16.17
2017-09-22T09:39:14.085Z,18.10
2017-09-22T09:41:43.196Z,16.70
2017-09-22T09:44:12.330Z,18.60
2017-09-22T09:46:41.466Z,15.40
2017-09-22T09:49:10.581Z,15.97
2017-09-22T09:51:39.703Z,15.70
2017-09-22T09:54:08.827Z,16.27
2017-09-22T09:56:37.961Z,15.20
2017-09-22T09:59:07.077Z,15.77
2017-09-22T10:01:36.198Z,15.53
2017-09-22T10:04:05.312Z,15.90
2017-09-22T10:06:34.446Z,15.50
2017-09-22T10:09:03.574Z,13.90
2017-09-22T10:11:32.739Z,15.03
2017-09-22T10:14:01.840Z,14.40
2017-09-22T10:16:30.955Z,13.97
2017-09-22T10:19:00.096Z,11.93
2017-09-22T10:21:29.321Z,12.67
2017-09-22T10:23:58.464Z,12.80
2017-09-22T10:26:27.661Z,12.00
2017-09-22T10:28:56.780Z,12.37
2017-09-22T10:31:25.912Z,13.93
2017-09-22T10:33:55.253Z,15.10
2017-09-22T10:36:24.374Z,13.57
2017-09-22T10:38:53.529Z,13.97
2017-09-22T10:41:22.660Z,14.30
2017-09-22T10:43:51.800Z,12.70
2017-09-22T10:46:20.932Z,13.57
2017-09-22T10:48:50.049Z,13.20
2017-09-22T10:51:19.193Z,13.20
2017-09-22T10:53:48.326Z,14.10
2017-09-22T10:56:17.497Z,14.53
2017-09-22T10:58:46.593Z,11.27
2017-09-22T11:01:16.009Z,11.30
2017-09-22T11:03:45.125Z,13.37
2017-09-22T11:06:14.308Z,12.53
2017-09-22T11:08:43.428Z,11.43
2017-09-22T11:11:12.555Z,10.80
2017-09-22T11:13:41.785Z,11.50
2017-09-22T11:16:10.906Z,11.03
2017-09-22T11:18:40.045Z,9.50
2017-09-22T11:21:09.160Z,8.80
2017-09-22T11:23:38.297Z,10.07
2017-09-22T11:26:07.413Z,9.57
2017-09-22T11:28:36.550Z,9.00
2017-09-22T11:31:05.449Z,8.63
2017-09-22T11:33:34.751Z,8.40
2017-09-22T11:36:04.053Z,8.40
2017-09-22T11:38:33.160Z,9.33
2017-09-22T11:41:02.288Z,9.10
2017-09-22T11:43:31.406Z,9.70
2017-09-22T11:46:00.523Z,7.50
2017-09-22T11:48:29.694Z,6.40
2017-09-22T11:50:58.802Z,7.13
2017-09-22T11:53:27.923Z,6.17
2017-09-22T11:55:57.040Z,6.50
2017-09-22T11:58:26.171Z,6.80
2017-09-22T12:00:55.347Z,6.87
2017-09-22T12:03:24.541Z,7.00
2017-09-22T12:05:53.768Z,5.70
2017-09-22T12:08:22.926Z,5.60
2017-09-22T12:10:52.064Z,6.67
2017-09-22T12:13:21.173Z,8.00
2017-09-22T12:15:50.284Z,7.20
2017-09-22T12:18:19.421Z,8.10
2017-09-22T12:20:48.563Z,7.70
2017-09-22T12:23:17.678Z,7.40
2017-09-22T12:25:46.815Z,7.00
2017-09-22T12:28:15.925Z,6.23
2017-09-22T12:30:45.056Z,5.77
2017-09-22T12:33:14.180Z,5.50
2017-09-22T12:35:43.292Z,6.07
2017-09-22T12:38:12.425Z,5.33
2017-09-22T12:40:41.533Z,5.23
2017-09-22T12:43:10.652Z,4.90
2017-09-22T12:45:39.792Z,5.20
2017-09-22T12:48:08.957Z,6.13
2017-09-22T12:50:38.088Z,5.10
2017-09-22T12:53:07.202Z,5.70
2017-09-22T12:55:36.728Z,6.40
2017-09-22T12:58:05.877Z,6.33
2017-09-22T13:00:34.994Z,7.53
2017-09-22T13:03:04.433Z,8.07
2017-09-22T13:05:34.179Z,6.93
2017-09-22T13:08:03.724Z,6.33
2017-09-22T13:10:32.855Z,7.77
2017-09-22T13:13:01.981Z,8.40
2017-09-22T13:15:31.226Z,7.50
2017-09-22T13:18:00.336Z,6.93
2017-09-22T13:20:29.644Z,6.50
2017-09-22T13:22:58.828Z,7.73
2017-09-22T13:25:28.036Z,7.20
2017-09-22T13:28:07.649Z,6.10
2017-09-22T13:30:36.752Z,7.47
2017-09-22T13:33:06.128Z,7.20
2017-09-22T13:35:35.298Z,7.00
2017-09-22T13:38:04.501Z,6.60
2017-09-22T13:40:33.631Z,7.03
2017-09-22T13:43:02.870Z,6.80
2017-09-22T13:45:32.008Z,5.97
2017-09-22T13:48:01.149Z,6.27
2017-09-22T13:50:30.538Z,6.80
2017-09-22T13:52:59.673Z,6.57
2017-09-22T13:55:28.786Z,6.80
2017-09-22T13:57:57.927Z,6.83
2017-09-22T14:00:27.035Z,6.10
2017-09-22T14:02:56.179Z,7.50
2017-09-22T14:05:27.098Z,6.87
2017-09-22T14:07:56.416Z,5.70
2017-09-22T14:10:25.545Z,4.60
2017-09-22T14:12:54.667Z,6.20
2017-09-22T14:15:23.807Z,5.73
2017-09-22T14:17:52.930Z,5.90
2017-09-22T14:20:22.114Z,6.13
2017-09-22T14:22:51.226Z,6.90
2017-09-22T14:25:20.370Z,6.57
2017-09-22T14:27:49.490Z,6.40
2017-09-22T14:30:18.622Z,5.33
2017-09-22T14:32:47.771Z,5.47
2017-09-22T14:35:17.067Z,6.40
2017-09-22T14:37:47.272Z,5.83
2017-09-22T14:40:16.373Z,6.47
2017-09-22T14:42:45.502Z,6.83
2017-09-22T14:45:14.704Z,7.53
2017-09-22T14:47:43.819Z,7.20
2017-09-22T14:50:12.961Z,6.47
2017-09-22T14:52:42.102Z,6.47
2017-09-22T14:55:11.217Z,6.30
2017-09-22T14:57:40.345Z,6.10
2017-09-22T15:00:09.466Z,6.70
2017-09-22T15:02:38.575Z,6.57
2017-09-22T15:05:07.700Z,6.60
2017-09-22T15:07:36.828Z,6.17
2017-09-22T15:10:05.963Z,6.50
2017-09-22T15:12:35.077Z,7.00
2017-09-22T15:15:04.215Z,6.97
2017-09-22T15:17:33.324Z,7.60
2017-09-22T15:20:02.464Z,5.70
2017-09-22T15:22:31.598Z,7.83
2017-09-22T15:25:00.705Z,6.80
2017-09-22T15:27:29.843Z,6.43
2017-09-22T15:29:59.094Z,6.60
2017-09-22T15:32:28.222Z,6.90
2017-09-22T15:35:02.184Z,6.80
2017-09-22T15:37:31.309Z,6.43
2017-09-22T15:40:00.600Z,6.33
2017-09-22T15:42:29.749Z,6.20
2017-09-22T15:44:58.916Z,6.80
2017-09-22T15:47:28.092Z,8.00
2017-09-22T15:49:57.248Z,6.70
2017-09-22T15:52:26.470Z,6.40
2017-09-22T15:54:55.592Z,5.90
2017-09-22T15:57:24.745Z,6.60
2017-09-22T15:59:53.900Z,6.17
2017-09-22T16:02:23.020Z,8.37
2017-09-22T16:04:52.133Z,7.17
2017-09-22T16:07:21.272Z,9.70
2017-09-22T16:09:50.389Z,11.30
2017-09-22T16:12:19.529Z,10.83
2017-09-22T16:14:48.668Z,12.60
2017-09-22T16:17:17.870Z,13.00
2017-09-22T16:19:47.081Z,13.73
2017-09-22T16:22:16.214Z,14.47
2017-09-22T16:24:45.347Z,15.07
2017-09-22T16:27:14.480Z,15.50
2017-09-22T16:29:43.616Z,16.83
2017-09-22T16:32:12.746Z,16.37
2017-09-22T16:34:41.884Z,17.10
2017-09-22T16:37:11.051Z,16.70
2017-09-22T16:39:40.198Z,15.50
2017-09-22T16:42:09.497Z,17.33
2017-09-22T16:44:38.621Z,16.33
2017-09-22T16:47:07.751Z,16.30
2017-09-22T16:49:36.881Z,16.20
2017-09-22T16:52:06.013Z,17.10
2017-09-22T16:54:35.610Z,17.57
2017-09-22T16:57:04.761Z,17.50
2017-09-22T16:59:33.892Z,17.17
2017-09-22T17:02:03.031Z,18.47
2017-09-22T17:04:32.144Z,17.20
2017-09-22T17:07:01.282Z,18.07
2017-09-22T17:09:30.406Z,15.10
2017-09-22T17:11:59.557Z,16.53
2017-09-22T17:14:28.664Z,16.47
2017-09-22T17:16:57.802Z,16.10
2017-09-22T17:19:26.933Z,16.60
2017-09-22T17:21:56.061Z,17.50
2017-09-22T17:24:25.216Z,19.37
2017-09-22T17:26:54.356Z,17.17
2017-09-22T17:29:23.483Z,16.77
2017-09-22T17:31:52.664Z,17.20
2017-09-22T17:34:21.756Z,17.63
2017-09-22T17:36:50.878Z,18.27
2017-09-22T17:39:20.001Z,17.77
2017-09-22T17:41:49.155Z,18.53
2017-09-22T17:44:18.294Z,18.60
2017-09-22T17:46:47.442Z,18.97
2017-09-22T17:49:16.557Z,19.33
2017-09-22T17:51:46.741Z,19.63
2017-09-22T17:54:15.862Z,18.87
2017-09-22T17:56:44.984Z,19.63
2017-09-22T17:59:14.120Z,18.17
2017-09-22T18:01:43.235Z,21.10
2017-09-22T18:04:12.372Z,18.00
2017-09-22T18:06:41.510Z,17.33
2017-09-22T18:09:10.628Z,18.97
2017-09-22T18:11:39.737Z,19.77
2017-09-22T18:14:08.890Z,19.60
2017-09-22T18:16:38.024Z,20.93
2017-09-22T18:19:07.169Z,17.50
2017-09-22T18:21:36.277Z,20.50
2017-09-22T18:24:05.408Z,17.20
2017-09-22T18:26:34.592Z,19.70
2017-09-22T18:29:03.744Z,20.07
2017-09-22T18:31:32.869Z,18.37
2017-09-22T18:34:02.026Z,18.50
2017-09-22T18:36:31.153Z,19.43
2017-09-22T18:39:00.261Z,17.43
2017-09-22T18:41:29.401Z,19.10
2017-09-22T18:43:58.541Z,19.53
2017-09-22T18:46:27.682Z,18.37
2017-09-22T18:48:56.821Z,19.37
2017-09-22T18:51:25.947Z,20.20
2017-09-22T18:53:55.089Z,21.30
2017-09-22T18:56:24.209Z,18.43
2017-09-22T18:58:53.373Z,20.17
2017-09-22T19:01:22.657Z,21.63
2017-09-22T19:03:51.789Z,21.50
2017-09-22T19:06:20.912Z,20.77
2017-09-22T19:08:50.044Z,22.07
2017-09-22T19:11:19.174Z,25.80
2017-09-22T19:13:48.301Z,24.63
2017-09-22T19:16:17.457Z,27.57
2017-09-22T19:18:46.659Z,24.50
2017-09-22T19:21:15.894Z,22.63
2017-09-22T19:23:45.020Z,23.13
2017-09-22T19:26:14.160Z,24.70
2017-09-22T19:28:43.273Z,21.27
2017-09-22T19:31:12.434Z,22.40
2017-09-22T19:33:41.622Z,20.87
2017-09-22T19:36:10.753Z,21.40
2017-09-22T19:38:39.921Z,21.10
2017-09-22T19:41:09.044Z,18.60
2017-09-22T19:43:38.164Z,23.77
2017-09-22T19:46:07.298Z,23.53
2017-09-22T19:48:36.472Z,35.70
2017-09-22T19:51:05.626Z,38.23
2017-09-22T19:53:34.734Z,42.60
2017-09-22T19:56:03.869Z,33.00
2017-09-22T19:58:33.029Z,29.00
2017-09-22T20:01:02.161Z,26.63
2017-09-22T20:03:31.485Z,25.27
2017-09-22T20:06:00.626Z,25.33
2017-09-22T20:08:29.779Z,22.73
2017-09-22T20:10:58.922Z,20.73
2017-09-22T20:13:28.080Z,19.87
2017-09-22T20:15:57.249Z,20.30
2017-09-22T20:18:26.665Z,21.37
2017-09-22T20:20:55.822Z,22.43
2017-09-22T20:23:24.954Z,22.63
2017-09-22T20:25:54.125Z,21.80
2017-09-22T20:28:24.006Z,22.10
2017-09-22T20:30:53.520Z,20.90
2017-09-22T20:33:22.764Z,25.67
2017-09-22T20:35:52.050Z,26.77
2017-09-22T20:38:21.187Z,28.60
2017-09-22T20:40:50.349Z,27.43
2017-09-22T20:43:19.485Z,28.20
2017-09-22T20:45:48.653Z,28.60
2017-09-22T20:48:18.019Z,30.20
2017-09-22T20:50:47.135Z,30.43
2017-09-22T20:53:16.440Z,30.73
2017-09-22T20:55:45.594Z,29.80
2017-09-22T20:58:14.724Z,27.03
2017-09-22T21:00:43.870Z,27.20
2017-09-22T21:03:13.022Z,26.20
2017-09-22T21:05:45.339Z,25.33
2017-09-22T21:08:14.465Z,26.40
2017-09-22T21:10:43.597Z,24.70
2017-09-22T21:13:12.928Z,24.93
2017-09-22T21:15:42.075Z,26.13
2017-09-22T21:18:11.236Z,28.20
2017-09-22T21:20:41.313Z,27.70
2017-09-22T21:23:10.442Z,26.00
2017-09-22T21:25:39.573Z,29.37
2017-09-22T21:28:09.110Z,29.40
2017-09-22T21:30:38.233Z,28.60
2017-09-22T21:33:07.494Z,28.00
2017-09-22T21:35:36.636Z,29.57
2017-09-22T21:38:05.753Z,32.13
2017-09-22T21:40:34.956Z,32.30
2017-09-22T21:43:04.104Z,30.03
2017-09-22T21:45:33.247Z,32.20
2017-09-22T21:48:02.501Z,29.53
2017-09-22T21:50:31.624Z,35.27
2017-09-22T21:53:00.740Z,35.23
2017-09-22T21:55:30.038Z,51.70
2017-09-22T21:57:59.344Z,66.10
2017-09-22T22:00:28.448Z,57.00
2017-09-22T22:03:14.485Z,53.30
2017-09-22T22:05:43.595Z,51.20
2017-09-22T22:08:12.739Z,48.10
2017-09-22T22:10:41.852Z,47.80
2017-09-22T22:13:10.985Z,51.30
2017-09-22T22:15:40.318Z,52.70
2017-09-22T22:18:09.517Z,50.00
2017-09-22T22:20:38.654Z,45.90
2017-09-22T22:23:07.788Z,47.60
2017-09-22T22:25:36.913Z,43.73
2017-09-22T22:28:06.039Z,45.77
2017-09-22T22:30:35.151Z,44.30
2017-09-22T22:33:04.289Z,42.30
2017-09-22T22:35:32.575Z,45.13
2017-09-22T22:38:00.825Z,46.13
2017-09-22T22:40:28.288Z,41.57
2017-09-22T22:45:29.656Z,45.40
2017-09-22T22:47:57.118Z,47.43
2017-09-22T22:50:25.358Z,46.57
2017-09-22T22:52:52.821Z,50.97
2017-09-22T22:55:20.309Z,49.20
2017-09-22T22:57:48.569Z,54.90
2017-09-22T23:00:16.533Z,56.60
2017-09-22T23:02:49.677Z,48.83
2017-09-22T23:05:17.142Z,44.20
2017-09-22T23:07:44.614Z,41.63
2017-09-22T23:10:12.074Z,42.63
2017-09-22T23:12:39.559Z,41.10
2017-09-22T23:15:07.041Z,40.83
2017-09-22T23:17:35.302Z,39.03
2017-09-22T23:20:03.559Z,37.60
2017-09-22T23:22:31.042Z,40.40
2017-09-22T23:24:59.730Z,41.60
2017-09-22T23:27:28.184Z,42.63
2017-09-22T23:29:55.653Z,43.67
2017-09-22T23:32:23.926Z,42.00
2017-09-22T23:34:51.410Z,42.97
2017-09-22T23:37:18.891Z,41.23
2017-09-22T23:39:46.373Z,43.40
2017-09-22T23:42:13.857Z,43.00
2017-09-22T23:44:42.106Z,40.77
2017-09-22T23:47:09.577Z,43.27
2017-09-22T23:49:37.047Z,41.23
2017-09-22T23:52:05.338Z,40.77
2017-09-22T23:54:32.818Z,41.47
2017-09-22T23:57:00.301Z,40.70
2017-09-22T23:59:27.761Z,41.37
